sensor_id;sensor_type;location;lat;lon;timestamp;temperature;humidity
64951;DHT22;51482;47.014;7.652;2022-08-21T00:01:06;17.50;99.90
64951;DHT22;51482;47.014;7.652;2022-08-21T00:03:35;18.50;99.90
64951;DHT22;51482;47.014;7.652;2022-08-21T00:06:01;17.90;99.90
64951;DHT22;51482;47.014;7.652;2022-08-21T00:08:27;17.50;99.90
64951;DHT22;51482;47.014;7.652;2022-08-21T00:10:53;17.80;99.90
64951;DHT22;51482;47.014;7.652;2022-08-21T00:13:19;17.60;99.90
64951;DHT22;51482;47.014;7.652;2022-08-21T00:15:46;17.40;99.90
64951;DHT22;51482;47.014;7.652;2022-08-21T00:18:13;17.60;99.90
64951;DHT22;51482;47.014;7.652;2022-08-21T00:20:39;17.50;99.90
64951;DHT22;51482;47.014;7.652;2022-08-21T00:23:06;17.60;99.90
64951;DHT22;51482;47.014;7.652;2022-08-21T00:25:32;18.20;99.90
64951;DHT22;51482;47.014;7.652;2022-08-21T00:27:59;17.60;99.90
64951;DHT22;51482;47.014;7.652;2022-08-21T00:30:25;17.90;99.90
64951;DHT22;51482;47.014;7.652;2022-08-21T00:32:52;17.50;99.90
64951;DHT22;51482;47.014;7.652;2022-08-21T00:35:22;17.90;99.90
64951;DHT22;51482;47.014;7.652;2022-08-21T00:37:48;17.40;99.90
64951;DHT22;51482;47.014;7.652;2022-08-21T00:40:16;17.90;99.90
64951;DHT22;51482;47.014;7.652;2022-08-21T00:42:43;17.40;99.90
64951;DHT22;51482;47.014;7.652;2022-08-21T00:45:09;17.90;99.90
64951;DHT22;51482;47.014;7.652;2022-08-21T00:47:35;17.90;99.90
64951;DHT22;51482;47.014;7.652;2022-08-21T00:50:02;17.40;99.90
64951;DHT22;51482;47.014;7.652;2022-08-21T00:52:30;17.40;99.90
64951;DHT22;51482;47.014;7.652;2022-08-21T00:54:58;17.50;99.90
64951;DHT22;51482;47.014;7.652;2022-08-21T00:57:30;18.20;99.90
64951;DHT22;51482;47.014;7.652;2022-08-21T00:59:58;18.10;99.90
64951;DHT22;51482;47.014;7.652;2022-08-21T01:02:25;18.00;99.90
64951;DHT22;51482;47.014;7.652;2022-08-21T01:04:51;17.60;99.90
64951;DHT22;51482;47.014;7.652;2022-08-21T01:07:17;17.20;99.90
64951;DHT22;51482;47.014;7.652;2022-08-21T01:09:44;17.20;99.90
64951;DHT22;51482;47.014;7.652;2022-08-21T01:12:11;17.50;99.90
64951;DHT22;51482;47.014;7.652;2022-08-21T01:14:37;17.20;99.90
64951;DHT22;51482;47.014;7.652;2022-08-21T01:17:05;17.80;99.90
64951;DHT22;51482;47.014;7.652;2022-08-21T01:19:31;17.10;99.90
64951;DHT22;51482;47.014;7.652;2022-08-21T01:21:57;16.70;99.90
64951;DHT22;51482;47.014;7.652;2022-08-21T01:24:22;17.10;99.90
64951;DHT22;51482;47.014;7.652;2022-08-21T01:26:49;17.90;99.90
64951;DHT22;51482;47.014;7.652;2022-08-21T01:29:39;17.20;99.90
64951;DHT22;51482;47.014;7.652;2022-08-21T01:32:11;17.60;99.90
64951;DHT22;51482;47.014;7.652;2022-08-21T01:34:40;17.70;99.90
64951;DHT22;51482;47.014;7.652;2022-08-21T01:37:07;17.60;99.90
64951;DHT22;51482;47.014;7.652;2022-08-21T01:39:34;17.80;99.90
64951;DHT22;51482;47.014;7.652;2022-08-21T01:42:00;17.10;99.90
64951;DHT22;51482;47.014;7.652;2022-08-21T01:44:26;17.30;99.90
64951;DHT22;51482;47.014;7.652;2022-08-21T01:46:52;17.30;99.90
64951;DHT22;51482;47.014;7.652;2022-08-21T01:49:18;17.20;99.90
64951;DHT22;51482;47.014;7.652;2022-08-21T01:51:44;17.10;99.90
64951;DHT22;51482;47.014;7.652;2022-08-21T01:54:10;17.50;99.90
64951;DHT22;51482;47.014;7.652;2022-08-21T01:56:39;17.30;99.90
64951;DHT22;51482;47.014;7.652;2022-08-21T01:59:06;16.90;99.90
64951;DHT22;51482;47.014;7.652;2022-08-21T02:01:31;17.20;99.90
64951;DHT22;51482;47.014;7.652;2022-08-21T02:03:57;16.60;99.90
64951;DHT22;51482;47.014;7.652;2022-08-21T02:06:24;16.80;99.90
64951;DHT22;51482;47.014;7.652;2022-08-21T02:08:50;16.70;99.90
64951;DHT22;51482;47.014;7.652;2022-08-21T02:11:16;16.80;99.90
64951;DHT22;51482;47.014;7.652;2022-08-21T02:13:42;17.00;99.90
64951;DHT22;51482;47.014;7.652;2022-08-21T02:16:08;17.10;99.90
64951;DHT22;51482;47.014;7.652;2022-08-21T02:18:34;16.60;99.90
64951;DHT22;51482;47.014;7.652;2022-08-21T02:21:00;16.60;99.90
64951;DHT22;51482;47.014;7.652;2022-08-21T02:23:26;16.70;99.90
64951;DHT22;51482;47.014;7.652;2022-08-21T02:25:52;16.70;99.90
64951;DHT22;51482;47.014;7.652;2022-08-21T02:28:17;17.30;99.90
64951;DHT22;51482;47.014;7.652;2022-08-21T02:30:46;16.70;99.90
64951;DHT22;51482;47.014;7.652;2022-08-21T02:33:12;17.00;99.90
64951;DHT22;51482;47.014;7.652;2022-08-21T02:35:41;17.00;99.90
64951;DHT22;51482;47.014;7.652;2022-08-21T02:38:12;16.60;99.90
64951;DHT22;51482;47.014;7.652;2022-08-21T02:40:40;16.60;99.90
64951;DHT22;51482;47.014;7.652;2022-08-21T02:43:06;16.60;99.90
64951;DHT22;51482;47.014;7.652;2022-08-21T02:45:33;16.50;99.90
64951;DHT22;51482;47.014;7.652;2022-08-21T02:48:02;16.50;99.90
64951;DHT22;51482;47.014;7.652;2022-08-21T02:50:32;16.90;99.90
64951;DHT22;51482;47.014;7.652;2022-08-21T02:52:59;16.50;99.90
64951;DHT22;51482;47.014;7.652;2022-08-21T02:55:27;16.60;99.90
64951;DHT22;51482;47.014;7.652;2022-08-21T02:57:54;16.50;99.90
64951;DHT22;51482;47.014;7.652;2022-08-21T03:00:22;16.50;99.90
64951;DHT22;51482;47.014;7.652;2022-08-21T03:02:48;16.40;99.90
64951;DHT22;51482;47.014;7.652;2022-08-21T03:05:15;16.50;99.90
64951;DHT22;51482;47.014;7.652;2022-08-21T03:07:42;16.30;99.90
64951;DHT22;51482;47.014;7.652;2022-08-21T03:10:09;16.60;99.90
64951;DHT22;51482;47.014;7.652;2022-08-21T03:12:36;16.60;99.90
64951;DHT22;51482;47.014;7.652;2022-08-21T03:15:04;16.60;99.90
64951;DHT22;51482;47.014;7.652;2022-08-21T03:17:31;16.00;99.90
64951;DHT22;51482;47.014;7.652;2022-08-21T03:19:57;16.00;99.90
64951;DHT22;51482;47.014;7.652;2022-08-21T03:22:22;16.30;99.90
64951;DHT22;51482;47.014;7.652;2022-08-21T03:24:48;16.70;99.90
64951;DHT22;51482;47.014;7.652;2022-08-21T03:27:13;16.90;99.90
64951;DHT22;51482;47.014;7.652;2022-08-21T03:29:40;16.40;99.90
64951;DHT22;51482;47.014;7.652;2022-08-21T03:32:06;16.50;99.90
64951;DHT22;51482;47.014;7.652;2022-08-21T03:34:35;16.10;99.90
64951;DHT22;51482;47.014;7.652;2022-08-21T03:37:01;16.00;99.90
64951;DHT22;51482;47.014;7.652;2022-08-21T03:39:27;16.40;99.90
64951;DHT22;51482;47.014;7.652;2022-08-21T03:41:52;16.40;99.90
64951;DHT22;51482;47.014;7.652;2022-08-21T03:44:19;16.00;99.90
64951;DHT22;51482;47.014;7.652;2022-08-21T03:46:45;15.70;99.90
64951;DHT22;51482;47.014;7.652;2022-08-21T03:49:10;16.50;99.90
64951;DHT22;51482;47.014;7.652;2022-08-21T03:51:36;16.50;99.90
64951;DHT22;51482;47.014;7.652;2022-08-21T03:54:02;16.00;99.90
64951;DHT22;51482;47.014;7.652;2022-08-21T03:56:28;16.00;99.90
64951;DHT22;51482;47.014;7.652;2022-08-21T03:58:54;15.90;99.90
64951;DHT22;51482;47.014;7.652;2022-08-21T04:01:19;15.90;99.90
64951;DHT22;51482;47.014;7.652;2022-08-21T04:03:45;16.70;99.90
64951;DHT22;51482;47.014;7.652;2022-08-21T04:06:10;15.80;99.90
64951;DHT22;51482;47.014;7.652;2022-08-21T04:08:36;15.80;99.90
64951;DHT22;51482;47.014;7.652;2022-08-21T04:11:02;15.80;99.90
64951;DHT22;51482;47.014;7.652;2022-08-21T04:13:28;15.80;99.90
64951;DHT22;51482;47.014;7.652;2022-08-21T04:15:54;15.80;99.90
64951;DHT22;51482;47.014;7.652;2022-08-21T04:18:20;15.80;99.90
64951;DHT22;51482;47.014;7.652;2022-08-21T04:20:48;15.70;99.90
64951;DHT22;51482;47.014;7.652;2022-08-21T04:23:14;15.80;99.90
64951;DHT22;51482;47.014;7.652;2022-08-21T04:25:40;15.80;99.90
64951;DHT22;51482;47.014;7.652;2022-08-21T04:28:05;15.70;99.90
64951;DHT22;51482;47.014;7.652;2022-08-21T04:30:31;15.70;99.90
64951;DHT22;51482;47.014;7.652;2022-08-21T04:32:58;15.70;99.90
64951;DHT22;51482;47.014;7.652;2022-08-21T04:35:25;15.70;99.90
64951;DHT22;51482;47.014;7.652;2022-08-21T04:37:51;15.70;99.90
64951;DHT22;51482;47.014;7.652;2022-08-21T04:40:18;16.00;99.90
64951;DHT22;51482;47.014;7.652;2022-08-21T04:42:49;16.00;99.90
64951;DHT22;51482;47.014;7.652;2022-08-21T04:45:24;15.90;99.90
64951;DHT22;51482;47.014;7.652;2022-08-21T04:47:52;15.50;99.90
64951;DHT22;51482;47.014;7.652;2022-08-21T04:50:18;15.50;99.90
64951;DHT22;51482;47.014;7.652;2022-08-21T04:52:44;15.40;99.90
64951;DHT22;51482;47.014;7.652;2022-08-21T04:55:10;15.40;99.90
64951;DHT22;51482;47.014;7.652;2022-08-21T04:57:36;15.40;99.90
64951;DHT22;51482;47.014;7.652;2022-08-21T05:00:03;15.40;99.90
64951;DHT22;51482;47.014;7.652;2022-08-21T05:02:30;15.40;99.90
64951;DHT22;51482;47.014;7.652;2022-08-21T05:04:59;15.80;99.90
64951;DHT22;51482;47.014;7.652;2022-08-21T05:07:28;15.40;99.90
64951;DHT22;51482;47.014;7.652;2022-08-21T05:09:55;15.30;99.90
64951;DHT22;51482;47.014;7.652;2022-08-21T05:12:21;16.00;99.90
64951;DHT22;51482;47.014;7.652;2022-08-21T05:14:47;15.80;99.90
64951;DHT22;51482;47.014;7.652;2022-08-21T05:17:13;15.40;99.90
64951;DHT22;51482;47.014;7.652;2022-08-21T05:19:39;15.90;99.90
64951;DHT22;51482;47.014;7.652;2022-08-21T05:22:05;16.40;99.90
64951;DHT22;51482;47.014;7.652;2022-08-21T05:24:31;15.80;99.90
64951;DHT22;51482;47.014;7.652;2022-08-21T05:26:57;15.00;99.90
64951;DHT22;51482;47.014;7.652;2022-08-21T05:29:24;15.40;99.90
64951;DHT22;51482;47.014;7.652;2022-08-21T05:31:49;16.40;99.90
64951;DHT22;51482;47.014;7.652;2022-08-21T05:34:21;16.00;99.90
64951;DHT22;51482;47.014;7.652;2022-08-21T05:36:47;15.20;99.90
64951;DHT22;51482;47.014;7.652;2022-08-21T05:39:14;15.70;99.90
64951;DHT22;51482;47.014;7.652;2022-08-21T05:41:39;15.10;99.90
64951;DHT22;51482;47.014;7.652;2022-08-21T05:44:05;15.20;99.90
64951;DHT22;51482;47.014;7.652;2022-08-21T05:46:30;15.20;99.90
64951;DHT22;51482;47.014;7.652;2022-08-21T05:48:56;15.20;99.90
64951;DHT22;51482;47.014;7.652;2022-08-21T05:51:21;15.20;99.90
64951;DHT22;51482;47.014;7.652;2022-08-21T05:53:47;15.20;99.90
64951;DHT22;51482;47.014;7.652;2022-08-21T05:56:13;15.20;99.90
64951;DHT22;51482;47.014;7.652;2022-08-21T05:58:39;15.20;99.90
64951;DHT22;51482;47.014;7.652;2022-08-21T06:01:05;16.20;99.90
64951;DHT22;51482;47.014;7.652;2022-08-21T06:03:34;15.40;99.90
64951;DHT22;51482;47.014;7.652;2022-08-21T06:06:01;16.30;99.90
64951;DHT22;51482;47.014;7.652;2022-08-21T06:08:27;15.40;99.90
64951;DHT22;51482;47.014;7.652;2022-08-21T06:10:54;16.10;99.90
64951;DHT22;51482;47.014;7.652;2022-08-21T06:13:21;15.40;99.90
64951;DHT22;51482;47.014;7.652;2022-08-21T06:15:47;15.40;99.90
64951;DHT22;51482;47.014;7.652;2022-08-21T06:18:14;15.60;99.90
64951;DHT22;51482;47.014;7.652;2022-08-21T06:20:40;15.50;99.90
64951;DHT22;51482;47.014;7.652;2022-08-21T06:23:06;16.50;99.90
64951;DHT22;51482;47.014;7.652;2022-08-21T06:25:32;16.30;99.90
64951;DHT22;51482;47.014;7.652;2022-08-21T06:28:07;16.10;99.90
64951;DHT22;51482;47.014;7.652;2022-08-21T06:30:33;15.90;99.90
64951;DHT22;51482;47.014;7.652;2022-08-21T06:32:59;16.00;99.90
64951;DHT22;51482;47.014;7.652;2022-08-21T06:35:25;16.00;99.90
64951;DHT22;51482;47.014;7.652;2022-08-21T06:37:52;16.00;99.90
64951;DHT22;51482;47.014;7.652;2022-08-21T06:40:18;16.50;99.90
64951;DHT22;51482;47.014;7.652;2022-08-21T06:42:43;16.90;99.90
64951;DHT22;51482;47.014;7.652;2022-08-21T06:45:10;17.80;99.90
64951;DHT22;51482;47.014;7.652;2022-08-21T06:47:36;17.70;99.90
64951;DHT22;51482;47.014;7.652;2022-08-21T06:50:02;18.20;99.90
64951;DHT22;51482;47.014;7.652;2022-08-21T06:52:28;18.00;99.90
64951;DHT22;51482;47.014;7.652;2022-08-21T06:54:54;17.90;99.90
64951;DHT22;51482;47.014;7.652;2022-08-21T06:57:20;17.50;99.90
64951;DHT22;51482;47.014;7.652;2022-08-21T06:59:45;18.50;99.90
64951;DHT22;51482;47.014;7.652;2022-08-21T07:02:11;18.10;99.90
64951;DHT22;51482;47.014;7.652;2022-08-21T07:04:36;18.20;99.90
64951;DHT22;51482;47.014;7.652;2022-08-21T07:07:02;18.70;99.90
64951;DHT22;51482;47.014;7.652;2022-08-21T07:09:28;18.20;99.90
64951;DHT22;51482;47.014;7.652;2022-08-21T07:11:55;18.50;99.90
64951;DHT22;51482;47.014;7.652;2022-08-21T07:14:21;18.50;99.90
64951;DHT22;51482;47.014;7.652;2022-08-21T07:16:48;18.90;99.90
64951;DHT22;51482;47.014;7.652;2022-08-21T07:19:13;18.60;99.90
64951;DHT22;51482;47.014;7.652;2022-08-21T07:21:39;19.00;99.90
64951;DHT22;51482;47.014;7.652;2022-08-21T07:24:06;18.60;99.90
64951;DHT22;51482;47.014;7.652;2022-08-21T07:26:32;18.60;99.90
64951;DHT22;51482;47.014;7.652;2022-08-21T07:28:57;18.50;99.90
64951;DHT22;51482;47.014;7.652;2022-08-21T07:31:24;18.90;99.90
64951;DHT22;51482;47.014;7.652;2022-08-21T07:33:53;19.00;99.90
64951;DHT22;51482;47.014;7.652;2022-08-21T07:36:19;19.00;99.90
64951;DHT22;51482;47.014;7.652;2022-08-21T07:38:45;19.30;99.90
64951;DHT22;51482;47.014;7.652;2022-08-21T07:41:16;19.50;99.90
64951;DHT22;51482;47.014;7.652;2022-08-21T07:43:43;19.80;99.90
64951;DHT22;51482;47.014;7.652;2022-08-21T07:46:09;20.10;99.90
64951;DHT22;51482;47.014;7.652;2022-08-21T07:48:34;20.60;99.90
64951;DHT22;51482;47.014;7.652;2022-08-21T07:51:03;20.40;99.90
64951;DHT22;51482;47.014;7.652;2022-08-21T07:53:30;20.50;99.90
64951;DHT22;51482;47.014;7.652;2022-08-21T07:55:59;20.80;99.90
64951;DHT22;51482;47.014;7.652;2022-08-21T07:58:25;21.10;99.90
64951;DHT22;51482;47.014;7.652;2022-08-21T08:00:50;20.90;99.90
64951;DHT22;51482;47.014;7.652;2022-08-21T08:03:16;21.10;99.90
64951;DHT22;51482;47.014;7.652;2022-08-21T08:05:42;20.90;99.90
64951;DHT22;51482;47.014;7.652;2022-08-21T08:08:08;21.10;99.90
64951;DHT22;51482;47.014;7.652;2022-08-21T08:10:35;20.90;99.90
64951;DHT22;51482;47.014;7.652;2022-08-21T08:13:02;21.20;99.90
64951;DHT22;51482;47.014;7.652;2022-08-21T08:15:28;20.80;99.90
64951;DHT22;51482;47.014;7.652;2022-08-21T08:17:55;21.20;99.90
64951;DHT22;51482;47.014;7.652;2022-08-21T08:20:21;21.30;99.90
64951;DHT22;51482;47.014;7.652;2022-08-21T08:22:48;21.50;99.90
64951;DHT22;51482;47.014;7.652;2022-08-21T08:25:15;21.90;99.90
64951;DHT22;51482;47.014;7.652;2022-08-21T08:27:41;21.70;99.90
64951;DHT22;51482;47.014;7.652;2022-08-21T08:30:09;21.80;99.90
64951;DHT22;51482;47.014;7.652;2022-08-21T08:32:36;21.50;99.90
64951;DHT22;51482;47.014;7.652;2022-08-21T08:35:02;22.60;99.90
64951;DHT22;51482;47.014;7.652;2022-08-21T08:37:28;22.30;99.90
64951;DHT22;51482;47.014;7.652;2022-08-21T08:39:53;22.80;99.90
64951;DHT22;51482;47.014;7.652;2022-08-21T08:42:24;23.10;99.90
64951;DHT22;51482;47.014;7.652;2022-08-21T08:44:57;23.80;99.90
64951;DHT22;51482;47.014;7.652;2022-08-21T08:47:24;24.00;99.90
64951;DHT22;51482;47.014;7.652;2022-08-21T08:50:03;24.40;99.90
64951;DHT22;51482;47.014;7.652;2022-08-21T08:52:41;23.90;99.90
64951;DHT22;51482;47.014;7.652;2022-08-21T08:55:36;24.30;99.90
64951;DHT22;51482;47.014;7.652;2022-08-21T08:57:59;24.70;99.90
64951;DHT22;51482;47.014;7.652;2022-08-21T09:00:26;24.80;99.90
64951;DHT22;51482;47.014;7.652;2022-08-21T09:02:54;24.90;99.90
64951;DHT22;51482;47.014;7.652;2022-08-21T09:05:24;24.50;99.90
64951;DHT22;51482;47.014;7.652;2022-08-21T09:08:05;24.10;99.90
64951;DHT22;51482;47.014;7.652;2022-08-21T09:11:04;23.70;99.90
64951;DHT22;51482;47.014;7.652;2022-08-21T09:13:46;23.60;99.90
64951;DHT22;51482;47.014;7.652;2022-08-21T09:21:49;24.80;99.90
64951;DHT22;51482;47.014;7.652;2022-08-21T09:27:16;25.60;99.40
64951;DHT22;51482;47.014;7.652;2022-08-21T09:29:46;25.40;99.90
64951;DHT22;51482;47.014;7.652;2022-08-21T09:32:18;25.70;98.30
64951;DHT22;51482;47.014;7.652;2022-08-21T09:37:24;26.10;97.80
64951;DHT22;51482;47.014;7.652;2022-08-21T09:39:50;25.70;97.50
64951;DHT22;51482;47.014;7.652;2022-08-21T09:42:23;26.30;97.70
64951;DHT22;51482;47.014;7.652;2022-08-21T09:45:06;26.40;97.10
64951;DHT22;51482;47.014;7.652;2022-08-21T09:47:32;26.80;96.70
64951;DHT22;51482;47.014;7.652;2022-08-21T09:50:08;26.90;95.40
64951;DHT22;51482;47.014;7.652;2022-08-21T09:52:34;26.80;94.70
64951;DHT22;51482;47.014;7.652;2022-08-21T09:55:00;27.00;95.50
64951;DHT22;51482;47.014;7.652;2022-08-21T09:57:45;27.60;94.70
64951;DHT22;51482;47.014;7.652;2022-08-21T10:02:48;27.90;91.60
64951;DHT22;51482;47.014;7.652;2022-08-21T10:05:26;28.00;90.10
64951;DHT22;51482;47.014;7.652;2022-08-21T10:07:52;28.50;90.50
64951;DHT22;51482;47.014;7.652;2022-08-21T10:10:21;28.40;89.60
64951;DHT22;51482;47.014;7.652;2022-08-21T10:15:39;28.40;85.50
64951;DHT22;51482;47.014;7.652;2022-08-21T10:18:27;28.70;83.70
64951;DHT22;51482;47.014;7.652;2022-08-21T10:21:43;29.20;84.80
64951;DHT22;51482;47.014;7.652;2022-08-21T10:35:13;29.00;78.00
64951;DHT22;51482;47.014;7.652;2022-08-21T10:38:41;29.20;75.00
64951;DHT22;51482;47.014;7.652;2022-08-21T10:41:28;29.10;77.10
64951;DHT22;51482;47.014;7.652;2022-08-21T10:44:23;28.70;76.10
64951;DHT22;51482;47.014;7.652;2022-08-21T10:47:02;28.90;74.80
64951;DHT22;51482;47.014;7.652;2022-08-21T10:49:38;29.40;75.40
64951;DHT22;51482;47.014;7.652;2022-08-21T10:54:57;29.10;72.70
64951;DHT22;51482;47.014;7.652;2022-08-21T10:57:44;28.90;74.10
64951;DHT22;51482;47.014;7.652;2022-08-21T11:00:18;29.30;71.00
64951;DHT22;51482;47.014;7.652;2022-08-21T11:07:45;30.40;69.00
64951;DHT22;51482;47.014;7.652;2022-08-21T11:10:25;30.50;66.80
64951;DHT22;51482;47.014;7.652;2022-08-21T11:13:00;30.40;66.10
64951;DHT22;51482;47.014;7.652;2022-08-21T11:15:38;30.20;64.70
64951;DHT22;51482;47.014;7.652;2022-08-21T11:21:25;29.50;69.00
64951;DHT22;51482;47.014;7.652;2022-08-21T11:27:23;28.70;72.40
64951;DHT22;51482;47.014;7.652;2022-08-21T11:29:58;28.30;73.60
64951;DHT22;51482;47.014;7.652;2022-08-21T11:35:53;27.60;72.90
64951;DHT22;51482;47.014;7.652;2022-08-21T11:38:28;27.40;77.50
64951;DHT22;51482;47.014;7.652;2022-08-21T11:41:18;27.60;79.20
64951;DHT22;51482;47.014;7.652;2022-08-21T11:46:44;28.70;75.40
64951;DHT22;51482;47.014;7.652;2022-08-21T11:57:17;28.80;74.10
64951;DHT22;51482;47.014;7.652;2022-08-21T12:00:18;29.40;72.70
64951;DHT22;51482;47.014;7.652;2022-08-21T12:02:50;30.00;71.70
64951;DHT22;51482;47.014;7.652;2022-08-21T12:05:35;30.70;68.00
64951;DHT22;51482;47.014;7.652;2022-08-21T12:08:12;30.70;66.60
64951;DHT22;51482;47.014;7.652;2022-08-21T12:10:41;30.90;65.60
64951;DHT22;51482;47.014;7.652;2022-08-21T12:13:22;31.20;65.60
64951;DHT22;51482;47.014;7.652;2022-08-21T12:15:48;31.20;63.60
64951;DHT22;51482;47.014;7.652;2022-08-21T12:18:24;30.50;62.30
64951;DHT22;51482;47.014;7.652;2022-08-21T12:21:47;29.80;66.20
64951;DHT22;51482;47.014;7.652;2022-08-21T12:26:36;28.60;70.30
64951;DHT22;51482;47.014;7.652;2022-08-21T12:34:44;28.70;70.70
64951;DHT22;51482;47.014;7.652;2022-08-21T12:37:38;29.40;69.00
64951;DHT22;51482;47.014;7.652;2022-08-21T12:40:32;29.90;64.90
64951;DHT22;51482;47.014;7.652;2022-08-21T12:42:58;29.60;65.00
64951;DHT22;51482;47.014;7.652;2022-08-21T12:45:57;29.60;64.10
64951;DHT22;51482;47.014;7.652;2022-08-21T12:51:12;28.70;65.60
64951;DHT22;51482;47.014;7.652;2022-08-21T12:53:53;28.30;66.00
64951;DHT22;51482;47.014;7.652;2022-08-21T12:56:29;27.90;66.30
64951;DHT22;51482;47.014;7.652;2022-08-21T12:59:02;27.80;67.90
64951;DHT22;51482;47.014;7.652;2022-08-21T13:01:46;27.50;67.00
64951;DHT22;51482;47.014;7.652;2022-08-21T13:04:17;27.30;68.10
64951;DHT22;51482;47.014;7.652;2022-08-21T13:06:48;27.40;70.60
64951;DHT22;51482;47.014;7.652;2022-08-21T13:09:18;27.90;69.00
64951;DHT22;51482;47.014;7.652;2022-08-21T13:11:46;28.50;67.40
64951;DHT22;51482;47.014;7.652;2022-08-21T13:14:33;28.90;66.10
64951;DHT22;51482;47.014;7.652;2022-08-21T13:16:59;29.50;64.90
64951;DHT22;51482;47.014;7.652;2022-08-21T13:19:28;29.50;61.50
64951;DHT22;51482;47.014;7.652;2022-08-21T13:21:55;30.00;61.10
64951;DHT22;51482;47.014;7.652;2022-08-21T13:24:32;29.80;61.00
64951;DHT22;51482;47.014;7.652;2022-08-21T13:26:59;30.00;59.90
64951;DHT22;51482;47.014;7.652;2022-08-21T13:29:30;29.90;58.30
64951;DHT22;51482;47.014;7.652;2022-08-21T13:32:02;30.20;58.30
64951;DHT22;51482;47.014;7.652;2022-08-21T13:34:35;29.80;59.50
64951;DHT22;51482;47.014;7.652;2022-08-21T13:37:05;29.90;58.10
64951;DHT22;51482;47.014;7.652;2022-08-21T13:39:31;30.10;57.20
64951;DHT22;51482;47.014;7.652;2022-08-21T13:42:00;30.40;58.20
64951;DHT22;51482;47.014;7.652;2022-08-21T13:44:45;30.50;57.90
64951;DHT22;51482;47.014;7.652;2022-08-21T13:47:12;30.60;58.10
64951;DHT22;51482;47.014;7.652;2022-08-21T13:49:49;30.70;57.10
64951;DHT22;51482;47.014;7.652;2022-08-21T13:52:23;30.80;55.30
64951;DHT22;51482;47.014;7.652;2022-08-21T13:54:59;30.80;56.10
64951;DHT22;51482;47.014;7.652;2022-08-21T13:57:27;30.90;56.90
64951;DHT22;51482;47.014;7.652;2022-08-21T13:59:53;30.80;56.10
64951;DHT22;51482;47.014;7.652;2022-08-21T14:02:39;30.80;55.90
64951;DHT22;51482;47.014;7.652;2022-08-21T14:05:05;30.80;55.60
64951;DHT22;51482;47.014;7.652;2022-08-21T14:07:39;30.90;56.40
64951;DHT22;51482;47.014;7.652;2022-08-21T14:10:13;30.90;56.40
64951;DHT22;51482;47.014;7.652;2022-08-21T14:12:46;30.80;55.90
64951;DHT22;51482;47.014;7.652;2022-08-21T14:15:17;30.70;55.10
64951;DHT22;51482;47.014;7.652;2022-08-21T14:17:44;30.60;55.20
64951;DHT22;51482;47.014;7.652;2022-08-21T14:20:13;30.60;55.10
64951;DHT22;51482;47.014;7.652;2022-08-21T14:22:50;30.50;55.60
64951;DHT22;51482;47.014;7.652;2022-08-21T14:30:31;30.40;55.40
64951;DHT22;51482;47.014;7.652;2022-08-21T14:32:57;30.60;53.80
64951;DHT22;51482;47.014;7.652;2022-08-21T14:35:24;30.60;54.60
64951;DHT22;51482;47.014;7.652;2022-08-21T14:37:50;30.70;53.40
64951;DHT22;51482;47.014;7.652;2022-08-21T14:40:16;30.60;54.20
64951;DHT22;51482;47.014;7.652;2022-08-21T14:42:43;30.60;54.60
64951;DHT22;51482;47.014;7.652;2022-08-21T14:45:23;30.80;54.60
64951;DHT22;51482;47.014;7.652;2022-08-21T14:47:51;30.70;52.90
64951;DHT22;51482;47.014;7.652;2022-08-21T14:50:17;30.30;50.50
64951;DHT22;51482;47.014;7.652;2022-08-21T14:52:42;30.50;52.40
64951;DHT22;51482;47.014;7.652;2022-08-21T14:55:11;30.50;51.10
64951;DHT22;51482;47.014;7.652;2022-08-21T14:57:40;30.50;52.50
64951;DHT22;51482;47.014;7.652;2022-08-21T15:00:09;30.30;52.20
64951;DHT22;51482;47.014;7.652;2022-08-21T15:02:35;30.60;53.50
64951;DHT22;51482;47.014;7.652;2022-08-21T15:05:01;30.60;54.20
64951;DHT22;51482;47.014;7.652;2022-08-21T15:07:26;30.60;53.40
64951;DHT22;51482;47.014;7.652;2022-08-21T15:09:52;30.40;51.50
64951;DHT22;51482;47.014;7.652;2022-08-21T15:12:18;30.30;52.00
64951;DHT22;51482;47.014;7.652;2022-08-21T15:14:43;30.30;52.10
64951;DHT22;51482;47.014;7.652;2022-08-21T15:17:10;30.20;52.10
64951;DHT22;51482;47.014;7.652;2022-08-21T15:19:37;30.00;52.20
64951;DHT22;51482;47.014;7.652;2022-08-21T15:22:03;30.00;51.40
64951;DHT22;51482;47.014;7.652;2022-08-21T15:24:29;29.90;50.50
64951;DHT22;51482;47.014;7.652;2022-08-21T15:26:56;29.90;50.50
64951;DHT22;51482;47.014;7.652;2022-08-21T15:29:24;30.00;50.90
64951;DHT22;51482;47.014;7.652;2022-08-21T15:31:59;30.00;50.90
64951;DHT22;51482;47.014;7.652;2022-08-21T15:34:27;29.80;49.90
64951;DHT22;51482;47.014;7.652;2022-08-21T15:36:56;30.00;51.70
64951;DHT22;51482;47.014;7.652;2022-08-21T15:39:23;29.70;50.80
64951;DHT22;51482;47.014;7.652;2022-08-21T15:41:49;29.80;50.70
64951;DHT22;51482;47.014;7.652;2022-08-21T15:44:15;29.60;53.00
64951;DHT22;51482;47.014;7.652;2022-08-21T15:46:41;29.70;48.60
64951;DHT22;51482;47.014;7.652;2022-08-21T15:49:07;29.50;50.80
64951;DHT22;51482;47.014;7.652;2022-08-21T15:51:34;29.60;52.10
64951;DHT22;51482;47.014;7.652;2022-08-21T15:54:00;29.40;52.60
64951;DHT22;51482;47.014;7.652;2022-08-21T15:56:28;29.40;52.20
64951;DHT22;51482;47.014;7.652;2022-08-21T15:59:08;29.70;53.50
64951;DHT22;51482;47.014;7.652;2022-08-21T16:01:38;29.10;53.20
64951;DHT22;51482;47.014;7.652;2022-08-21T16:04:04;29.40;54.40
64951;DHT22;51482;47.014;7.652;2022-08-21T16:06:30;29.50;53.90
64951;DHT22;51482;47.014;7.652;2022-08-21T16:08:58;29.10;53.10
64951;DHT22;51482;47.014;7.652;2022-08-21T16:11:24;29.60;53.10
64951;DHT22;51482;47.014;7.652;2022-08-21T16:13:49;29.20;53.10
64951;DHT22;51482;47.014;7.652;2022-08-21T16:16:20;29.00;52.60
64951;DHT22;51482;47.014;7.652;2022-08-21T16:18:47;28.90;53.00
64951;DHT22;51482;47.014;7.652;2022-08-21T16:21:13;28.90;53.10
64951;DHT22;51482;47.014;7.652;2022-08-21T16:23:39;28.90;53.90
64951;DHT22;51482;47.014;7.652;2022-08-21T16:26:06;28.90;54.80
64951;DHT22;51482;47.014;7.652;2022-08-21T16:28:35;28.60;53.90
64951;DHT22;51482;47.014;7.652;2022-08-21T16:31:02;28.40;53.40
64951;DHT22;51482;47.014;7.652;2022-08-21T16:33:37;28.40;55.40
64951;DHT22;51482;47.014;7.652;2022-08-21T16:36:05;28.40;54.70
64951;DHT22;51482;47.014;7.652;2022-08-21T16:38:31;28.40;54.50
64951;DHT22;51482;47.014;7.652;2022-08-21T16:41:06;28.40;53.90
64951;DHT22;51482;47.014;7.652;2022-08-21T16:43:33;28.20;54.40
64951;DHT22;51482;47.014;7.652;2022-08-21T16:46:00;28.10;54.90
64951;DHT22;51482;47.014;7.652;2022-08-21T16:48:26;28.00;55.60
64951;DHT22;51482;47.014;7.652;2022-08-21T16:50:54;27.90;55.70
64951;DHT22;51482;47.014;7.652;2022-08-21T16:53:20;27.50;55.70
64951;DHT22;51482;47.014;7.652;2022-08-21T16:55:46;27.60;55.90